APL Columbus — 9V9920 — position and weather

sailwx.info

Track history (hours):
 
Tides and Currents Weather Stations Pressure Air Temp Water Temp Dewpoint Dewpoint Depression Visibility Wind Speed Wind Dir Waves Ship Positions

APL Columbus

Last reported at 2018-Jun-25 17:29 UTC. Time now 2018-Jun-25 17:50 UTC.
Position N 37°48' W 122°19'.

Length 328 m; draft 12 m.

Type: Ship (hazmat cat A). MMSI: 566953000.

Date/timePositionNaut miles runAvg speedWind from/ knotsBaromVisibWave heightAir tempDewpointWater temp
2018-Jun-25 17:29N 37°48' W 122°19'0 0.0
2018-Jun-25 16:59N 37°48' W 122°19'0 0.0
2018-Jun-25 16:28N 37°48' W 122°19'0 0.0
2018-Jun-25 15:59N 37°48' W 122°19'0 0.0
2018-Jun-25 15:26N 37°48' W 122°19'0 0.0
2018-Jun-25 14:59N 37°48' W 122°19'0 0.6
2018-Jun-25 14:28N 37°48' W 122°19'1 1.4
2018-Jun-25 14:00N 37°48' W 122°20'3 5.4
2018-Jun-25 13:30N 37°48' W 122°23'4 8.3
2018-Jun-25 13:00N 37°49' W 122°28'510.5
2018-Jun-25 12:30N 37°47' W 122°34'611.5
2018-Jun-25 12:01N 37°44' W 122°41'4 7.8
2018-Jun-25 11:30N 37°41' W 122°40'510.9
2018-Jun-25 11:00N 37°35' W 122°39'612.5
2018-Jun-25 10:30N 37°29' W 122°39'714.0
2018-Jun-25 10:00N 37°22' W 122°39'714.3
2018-Jun-25 09:30N 37°15' W 122°39'714.4
2018-Jun-25 09:00N 37°08' W 122°37'714.4
2018-Jun-25 08:30N 37°01' W 122°34'814.7
2018-Jun-25 07:59N 36°54' W 122°30'714.9
2018-Jun-25 07:30N 36°47' W 122°27'815.5
2018-Jun-25 07:00N 36°40' W 122°23'815.7
2018-Jun-25 06:30N 36°33' W 122°20'815.5
2018-Jun-25 06:00N 36°26' W 122°16'815.4
2018-Jun-25 05:30N 36°18' W 122°12'714.8
2018-Jun-25 05:00N 36°12' W 122°08'815.3
2018-Jun-25 04:30N 36°05' W 122°03'815.5
2018-Jun-25 04:00N 35°59' W 121°59'815.1
2018-Jun-25 03:30N 35°52' W 121°54'815.1
2018-Jun-25 03:00N 35°45' W 121°49'714.8
2018-Jun-25 02:30N 35°39' W 121°45'815.7
2018-Jun-25 02:00N 35°32' W 121°41'815.9
2018-Jun-25 01:30N 35°25' W 121°36'815.8
2018-Jun-25 01:00N 35°18' W 121°31'815.6
2018-Jun-25 00:30N 35°11' W 121°26'815.5
2018-Jun-25 00:00N 35°05' W 121°22'815.8
2018-Jun-24 23:30N 34°58' W 121°17'816.7
2018-Jun-24 23:00N 34°51' W 121°12'816.9
2018-Jun-24 22:30N 34°44' W 121°06'917.1
2018-Jun-24 22:00N 34°36' W 121°01'917.5
2018-Jun-24 21:30N 34°29' W 120°55'916.7
2018-Jun-24 20:59N 34°25' W 120°46'817.1
2018-Jun-24 20:30N 34°23' W 120°36'917.6
2018-Jun-24 20:00N 34°20' W 120°26'917.6
2018-Jun-24 19:30N 34°18' W 120°16'917.4
2018-Jun-24 18:59N 34°16' W 120°05'817.7
2018-Jun-24 18:30N 34°13' W 119°55'917.3
2018-Jun-24 18:00N 34°11' W 119°45'1017.9
2018-Jun-24 17:28N 34°09' W 119°34'917.6
2018-Jun-24 16:59N 34°06' W 119°24'817.3
2018-Jun-24 16:30N 34°04' W 119°15'917.4
2018-Jun-24 16:00N 33°59' W 119°05'713.3
2018-Jun-24 15:26N 33°56' W 118°57'511.6
2018-Jun-24 15:00N 33°53' W 118°52'711.4
2018-Jun-24 14:25N 33°50' W 118°45'511.5
2018-Jun-24 14:00N 33°48' W 118°40'711.6
2018-Jun-24 13:26N 33°44' W 118°33'511.5
2018-Jun-24 13:00N 33°42' W 118°28'611.7
2018-Jun-24 12:30N 33°39' W 118°22'510.2
2018-Jun-24 12:00N 33°40' W 118°16'4 7.6
2018-Jun-24 11:30N 33°43' W 118°16'1 1.3
2018-Jun-24 10:59N 33°44' W 118°15'0 0.0
2018-Jun-24 10:29N 33°44' W 118°15'0 0.0
2018-Jun-24 09:59N 33°44' W 118°15'0 0.0
2018-Jun-24 09:29N 33°44' W 118°15'0 0.0
2018-Jun-24 08:59N 33°44' W 118°15'0 0.0
2018-Jun-24 08:26N 33°44' W 118°15'0 0.0
2018-Jun-24 07:59N 33°44' W 118°15'0 0.0
2018-Jun-24 07:29N 33°44' W 118°15'0 0.0
2018-Jun-24 06:59N 33°44' W 118°15'0 0.0
2018-Jun-24 06:29N 33°44' W 118°15'0 0.0
2018-Jun-24 05:59N 33°44' W 118°15'0 0.0
2018-Jun-24 05:29N 33°44' W 118°15'0 0.0
2018-Jun-24 04:59N 33°44' W 118°15'0 0.0
2018-Jun-24 04:26N 33°44' W 118°15'0 0.0
2018-Jun-24 03:59N 33°44' W 118°15'0 0.0
2018-Jun-24 03:29N 33°44' W 118°15'0 0.0
2018-Jun-24 02:59N 33°44' W 118°15'0 0.0
2018-Jun-24 02:29N 33°44' W 118°15'0 0.0
2018-Jun-24 01:56N 33°44' W 118°15'0 0.0
2018-Jun-24 01:29N 33°44' W 118°15'0 0.0
2018-Jun-24 00:59N 33°44' W 118°15'0 0.0
2018-Jun-24 00:29N 33°44' W 118°15'0 0.0
2018-Jun-23 23:59N 33°44' W 118°15'0 0.0
2018-Jun-23 23:29N 33°44' W 118°15'0 0.0
2018-Jun-23 22:59N 33°44' W 118°15'0 0.0
2018-Jun-23 22:29N 33°44' W 118°15'0 0.0
2018-Jun-23 21:59N 33°44' W 118°15'0 0.0
2018-Jun-23 21:29N 33°44' W 118°15'0 0.0
2018-Jun-23 20:59N 33°44' W 118°15'0 0.0
2018-Jun-23 20:29N 33°44' W 118°15'0 0.0
2018-Jun-23 19:59N 33°44' W 118°15'0 0.0
2018-Jun-23 19:29N 33°44' W 118°15'0 0.0
2018-Jun-23 18:59N 33°44' W 118°15'0 0.0
2018-Jun-23 18:29N 33°44' W 118°15'0 0.0
2018-Jun-23 17:59N 33°44' W 118°15'0 0.0
2018-Jun-23 17:29N 33°44' W 118°15'0 0.0
2018-Jun-23 16:59N 33°44' W 118°15'0 0.0
2018-Jun-23 16:29N 33°44' W 118°15'0 0.0
2018-Jun-23 15:59N 33°44' W 118°15'0 0.0
2018-Jun-23 15:29N 33°44' W 118°15'0 0.0
2018-Jun-23 14:59N 33°44' W 118°15'0 0.0
2018-Jun-23 14:29N 33°44' W 118°15'0 0.1
2018-Jun-23 13:59N 33°44' W 118°15'0 0.1
2018-Jun-23 13:29N 33°44' W 118°15'0 0.0
2018-Jun-23 12:59N 33°44' W 118°15'0 0.0
2018-Jun-23 12:29N 33°44' W 118°15'0 0.0
2018-Jun-23 11:59N 33°44' W 118°15'0 0.0
2018-Jun-23 11:29N 33°44' W 118°15'0 0.1
2018-Jun-23 10:59N 33°44' W 118°15'0 0.1
2018-Jun-23 10:29N 33°44' W 118°15'0 0.0
2018-Jun-23 09:59N 33°44' W 118°15'0 0.0
2018-Jun-23 09:29N 33°44' W 118°15'0 0.0
2018-Jun-23 08:59N 33°44' W 118°15'0 0.0
2018-Jun-23 08:29N 33°44' W 118°15'0 0.0
2018-Jun-23 07:59N 33°44' W 118°15'0 0.0
2018-Jun-23 07:29N 33°44' W 118°15'0 0.0
2018-Jun-23 06:59N 33°44' W 118°15'0 0.0
2018-Jun-23 06:29N 33°44' W 118°15'0 0.0
2018-Jun-23 05:59N 33°44' W 118°15'0 0.0
2018-Jun-23 05:26N 33°44' W 118°15'0 0.0
2018-Jun-23 04:59N 33°44' W 118°15'0 0.0
2018-Jun-23 04:29N 33°44' W 118°15'0 0.0
2018-Jun-23 03:59N 33°44' W 118°15'0 0.0
2018-Jun-23 03:29N 33°44' W 118°15'0 0.0
2018-Jun-23 02:59N 33°44' W 118°15'0 0.0
2018-Jun-23 02:29N 33°44' W 118°15'0 0.0
2018-Jun-23 01:59N 33°44' W 118°15'0 0.0
2018-Jun-23 01:29N 33°44' W 118°15'0 0.0
2018-Jun-23 00:59N 33°44' W 118°15'0 0.0
2018-Jun-23 00:29N 33°44' W 118°15'0 0.0
2018-Jun-22 23:59N 33°44' W 118°15'0 0.0
2018-Jun-22 23:29N 33°44' W 118°15'0 0.0
2018-Jun-22 22:59N 33°44' W 118°15'0 0.0
2018-Jun-22 22:29N 33°44' W 118°15'0 0.0
2018-Jun-22 21:59N 33°44' W 118°15'0 0.0
2018-Jun-22 21:29N 33°44' W 118°15'0 0.0
2018-Jun-22 20:59N 33°44' W 118°15'0 0.0
2018-Jun-22 20:29N 33°44' W 118°15'0 0.1
2018-Jun-22 19:59N 33°44' W 118°15'0 0.1
2018-Jun-22 19:29N 33°44' W 118°15'0 0.0
2018-Jun-22 18:59N 33°44' W 118°15'0 0.0
2018-Jun-22 18:29N 33°44' W 118°15'0 0.0
2018-Jun-22 17:56N 33°44' W 118°15'0 0.0
2018-Jun-22 17:26N 33°44' W 118°15'0 0.0
2018-Jun-22 16:50N 33°44' W 118°15'0 0.0
2018-Jun-22 16:29N 33°44' W 118°15'0 0.0
2018-Jun-22 15:59N 33°44' W 118°15'0 0.0
2018-Jun-22 15:29N 33°44' W 118°15'0 0.0
2018-Jun-22 14:59N 33°44' W 118°15'0 0.0
2018-Jun-22 14:29N 33°44' W 118°15'0 0.0
2018-Jun-22 13:59N 33°44' W 118°15'0 0.0
2018-Jun-22 13:29N 33°44' W 118°15'0 0.0
2018-Jun-22 12:59N 33°44' W 118°15'0 0.0
2018-Jun-22 12:29N 33°44' W 118°15'0 0.0
2018-Jun-22 11:59N 33°44' W 118°15'0 0.0
2018-Jun-22 11:29N 33°44' W 118°15'0 0.0
2018-Jun-22 10:59N 33°44' W 118°15'0 0.0
2018-Jun-22 10:29N 33°44' W 118°15'0 0.0
2018-Jun-22 09:59N 33°44' W 118°15'0 0.0
2018-Jun-22 09:29N 33°44' W 118°15'0 0.0
2018-Jun-22 08:59N 33°44' W 118°15'0 0.0
2018-Jun-22 08:29N 33°44' W 118°15'0 0.0
2018-Jun-22 07:59N 33°44' W 118°15'0 0.0
2018-Jun-22 07:29N 33°44' W 118°15'0 0.0
2018-Jun-22 06:59N 33°44' W 118°15'0 0.0
2018-Jun-22 06:29N 33°44' W 118°15'0 0.0
2018-Jun-22 05:59N 33°44' W 118°15'0 0.0
2018-Jun-22 05:29N 33°44' W 118°15'0 0.0
2018-Jun-22 04:59N 33°44' W 118°15'0 0.0
2018-Jun-22 04:26N 33°44' W 118°15'0 0.0
2018-Jun-22 03:59N 33°44' W 118°15'0 0.0
2018-Jun-22 03:29N 33°44' W 118°15'0 0.0
2018-Jun-22 02:59N 33°44' W 118°15'0 0.0
2018-Jun-22 02:26N 33°44' W 118°15'0 0.0
2018-Jun-22 01:59N 33°44' W 118°15'0 0.0
2018-Jun-22 01:29N 33°44' W 118°15'0 0.0
2018-Jun-22 00:59N 33°44' W 118°15'0 0.0
2018-Jun-22 00:26N 33°44' W 118°15'0 0.0
2018-Jun-21 23:59N 33°44' W 118°15'0 0.0
2018-Jun-21 23:29N 33°44' W 118°15'0 0.0
2018-Jun-21 22:59N 33°44' W 118°15'0 0.0
2018-Jun-21 22:29N 33°44' W 118°15'0 0.0
2018-Jun-21 21:59N 33°44' W 118°15'0 0.0
2018-Jun-21 21:29N 33°44' W 118°15'0 0.0
2018-Jun-21 20:59N 33°44' W 118°15'0 0.0
2018-Jun-21 20:29N 33°44' W 118°15'0 0.0
2018-Jun-21 19:59N 33°44' W 118°15'0 0.0
2018-Jun-21 19:29N 33°44' W 118°15'0 0.0
2018-Jun-21 18:59N 33°44' W 118°15'0 0.0
2018-Jun-21 18:29N 33°44' W 118°15'0 0.0
2018-Jun-21 17:59N 33°44' W 118°15'0 0.0
2018-Jun-21 17:29N 33°44' W 118°15'0 0.0
2018-Jun-21 16:59N 33°44' W 118°15'0 0.0
2018-Jun-21 16:26N 33°44' W 118°15'0 0.0
2018-Jun-21 15:59N 33°44' W 118°15'0 0.0
2018-Jun-21 15:29N 33°44' W 118°15'0 0.0
2018-Jun-21 14:59N 33°44' W 118°15'0 0.0
2018-Jun-21 14:29N 33°44' W 118°15'0 0.0
2018-Jun-21 13:59N 33°44' W 118°15'0 0.0
2018-Jun-21 13:29N 33°44' W 118°15'0 0.0
2018-Jun-21 12:59N 33°44' W 118°15'0 0.1
2018-Jun-21 12:29N 33°44' W 118°15'0 0.1
2018-Jun-21 11:59N 33°44' W 118°15'0 0.0
2018-Jun-21 11:29N 33°44' W 118°15'0 0.0
2018-Jun-21 10:59N 33°44' W 118°15'0 0.0
2018-Jun-21 10:29N 33°44' W 118°15'0 0.0
2018-Jun-21 09:59N 33°44' W 118°15'0 0.0
2018-Jun-21 09:29N 33°44' W 118°15'0 0.0
2018-Jun-21 08:50N 33°44' W 118°15'0 0.0
2018-Jun-21 08:29N 33°44' W 118°15'0 0.0
2018-Jun-21 07:59N 33°44' W 118°15'0 0.0
2018-Jun-21 07:29N 33°44' W 118°15'0 0.0
2018-Jun-21 06:59N 33°44' W 118°15'0 0.0
2018-Jun-21 06:29N 33°44' W 118°15'0 0.0
2018-Jun-21 05:59N 33°44' W 118°15'0 0.0
2018-Jun-21 05:29N 33°44' W 118°15'0 0.0
2018-Jun-21 04:56N 33°44' W 118°15'0 0.0
2018-Jun-21 04:29N 33°44' W 118°15'0 0.0
2018-Jun-21 03:59N 33°44' W 118°15'0 0.0
2018-Jun-21 03:29N 33°44' W 118°15'0 0.0
2018-Jun-21 02:59N 33°44' W 118°15'0 0.0
2018-Jun-21 02:29N 33°44' W 118°15'0 0.0
2018-Jun-21 01:59N 33°44' W 118°15'0 0.0
2018-Jun-21 01:29N 33°44' W 118°15'0 0.0
2018-Jun-21 00:59N 33°44' W 118°15'0 0.0
2018-Jun-21 00:29N 33°44' W 118°15'0 0.0
2018-Jun-20 23:59N 33°44' W 118°15'0 0.0
2018-Jun-20 23:29N 33°44' W 118°15'0 0.0
2018-Jun-20 22:59N 33°44' W 118°15'0 0.0
2018-Jun-20 22:29N 33°44' W 118°15'0 0.1
2018-Jun-20 22:00N 33°44' W 118°15'1 2.6
2018-Jun-20 21:30N 33°43' W 118°15'4 8.1
2018-Jun-20 21:00N 33°39' W 118°14'5 9.8
2018-Jun-20 20:30N 33°36' W 118°19'611.6
2018-Jun-20 20:00N 33°38' W 118°25'611.9
2018-Jun-20 19:30N 33°41' W 118°32'612.0
2018-Jun-20 19:00N 33°44' W 118°38'611.9
2018-Jun-20 18:29N 33°47' W 118°44'611.8
2018-Jun-20 18:00N 33°50' W 118°50'612.0
2018-Jun-20 17:30N 33°53' W 118°57'611.8
2018-Jun-20 17:00N 33°56' W 119°03'612.4
2018-Jun-20 16:30N 33°59' W 119°09'714.2
2018-Jun-20 15:59N 34°03' W 119°17'714.2
2018-Jun-20 15:30N 34°05' W 119°25'714.2
2018-Jun-20 15:00N 34°06' W 119°33'814.7
2018-Jun-20 14:29N 34°08' W 119°42'714.9
2018-Jun-20 14:00N 34°10' W 119°50'815.0
2018-Jun-20 13:30N 34°12' W 119°59'714.5
2018-Jun-20 12:59N 34°14' W 120°08'714.2
2018-Jun-20 12:30N 34°16' W 120°16'715.0
2018-Jun-20 12:00N 34°18' W 120°25'714.1
2018-Jun-20 11:30N 34°20' W 120°33'714.1
2018-Jun-20 11:01N 34°22' W 120°41'714.7
2018-Jun-20 10:30N 34°24' W 120°50'714.5
2018-Jun-20 10:01N 34°27' W 120°58'714.4
2018-Jun-20 09:30N 34°31' W 121°05'714.4
2018-Jun-20 09:01N 34°34' W 121°12'714.9
2018-Jun-20 08:31N 34°38' W 121°20'714.3
2018-Jun-20 08:01N 34°42' W 121°28'714.5
2018-Jun-20 07:30N 34°46' W 121°35'714.3
2018-Jun-20 07:01N 34°49' W 121°43'714.2
2018-Jun-20 06:30N 34°53' W 121°50'714.6
2018-Jun-20 06:00N 34°57' W 121°58'714.4
2018-Jun-20 05:31N 35°01' W 122°05'714.6
2018-Jun-20 05:01N 35°04' W 122°13'714.9
2018-Jun-20 04:31N 35°08' W 122°20'714.7
2018-Jun-20 04:01N 35°12' W 122°28'815.0
2018-Jun-20 03:30N 35°16' W 122°36'714.6
2018-Jun-20 03:00N 35°20' W 122°44'714.2
2018-Jun-20 02:31N 35°23' W 122°51'714.7
2018-Jun-20 02:01N 35°27' W 122°59'714.5
2018-Jun-20 01:31N 35°31' W 123°06'714.4
2018-Jun-20 01:01N 35°35' W 123°14'714.5
2018-Jun-20 00:31N 35°38' W 123°22'714.6
2018-Jun-20 00:00N 35°42' W 123°29'714.8
2018-Jun-19 23:31N 35°46' W 123°37'713.6
2018-Jun-19 23:00N 35°50' W 123°44'1 1.7
2018-Jun-19 22:30N 35°50' W 123°45'610.3
2018-Jun-19 21:56N 35°53' W 123°51'715.6
2018-Jun-19 21:30N 35°57' W 123°58'816.0
2018-Jun-19 20:59N 36°01' W 124°07'816.0
2018-Jun-19 20:30N 36°05' W 124°15'815.8
2018-Jun-19 20:00N 36°09' W 124°23'1116.2
2018-Jun-19 19:21N 36°15' W 124°35'1016.9
2018-Jun-19 18:47N 36°20' W 124°45'1717.0
2018-Jun-19 17:48N 36°28' W 125°03'516.4
2018-Jun-19 17:30N 36°31' W 125°08'1116.3
2018-Jun-19 16:49N 36°36' W 125°20'516.4
2018-Jun-19 16:30N 36°39' W 125°25'816.2
2018-Jun-19 16:00N 36°43' W 125°34'816.3
2018-Jun-19 15:30N 36°48' W 125°42'816.7
2018-Jun-19 15:00N 36°52' W 125°51'816.8
2018-Jun-19 14:30N 36°56' W 126°00'916.9
2018-Jun-19 14:00N 37°01' W 126°09'817.0
2018-Jun-19 13:30N 37°05' W 126°18'1117.3
2018-Jun-19 12:53N 37°11' W 126°30'817.3
2018-Jun-19 12:25N 37°15' W 126°39'1017.0
2018-Jun-19 11:51N 37°20' W 126°49'716.9
2018-Jun-19 11:27N 37°23' W 126°56'816.9
2018-Jun-19 11:00N 37°27' W 127°04'916.5
2018-Jun-19 10:30N 37°32' W 127°13'816.4
2018-Jun-19 10:00N 37°36' W 127°22'816.8
2018-Jun-19 09:30N 37°40' W 127°31'917.0
2018-Jun-19 09:00N 37°45' W 127°40'817.1
2018-Jun-19 08:30N 37°49' W 127°50'917.2
2018-Jun-19 08:00N 37°53' W 127°59'917.2
2018-Jun-19 07:30N 37°57' W 128°09'917.4
2018-Jun-19 07:00N 38°01' W 128°18'  
2018-Jun-17 00:00N 44°12' W 151°12'23719.7 190 / 281010.5 0.5 13.011.310.5
2018-Jun-16 12:00N 45°06' W 156°36'   250 / 201006.0 1.1 12.0 8.3 9.0
Track history (hours):
 
Tides and Currents Weather Stations Pressure Air Temp Water Temp Dewpoint Dewpoint Depression Visibility Wind Speed Wind Dir Waves Ship Positions

APL Columbus

Last reported at 2018-Jun-25 17:29 UTC. Time now 2018-Jun-25 17:50 UTC.
Position N 37°48' W 122°19'.

Length 328 m; draft 12 m.

Type: Ship (hazmat cat A). MMSI: 566953000.

Date/timePositionNaut miles runAvg speedWind from/ knotsBaromVisibWave heightAir tempDewpointWater temp
2018-Jun-25 17:29N 37°48' W 122°19'0 0.0
2018-Jun-25 16:59N 37°48' W 122°19'0 0.0
2018-Jun-25 16:28N 37°48' W 122°19'0 0.0
2018-Jun-25 15:59N 37°48' W 122°19'0 0.0
2018-Jun-25 15:26N 37°48' W 122°19'0 0.0
2018-Jun-25 14:59N 37°48' W 122°19'0 0.6
2018-Jun-25 14:28N 37°48' W 122°19'1 1.4
2018-Jun-25 14:00N 37°48' W 122°20'3 5.4
2018-Jun-25 13:30N 37°48' W 122°23'4 8.3
2018-Jun-25 13:00N 37°49' W 122°28'510.5
2018-Jun-25 12:30N 37°47' W 122°34'611.5
2018-Jun-25 12:01N 37°44' W 122°41'4 7.8
2018-Jun-25 11:30N 37°41' W 122°40'510.9
2018-Jun-25 11:00N 37°35' W 122°39'612.5
2018-Jun-25 10:30N 37°29' W 122°39'714.0
2018-Jun-25 10:00N 37°22' W 122°39'714.3
2018-Jun-25 09:30N 37°15' W 122°39'714.4
2018-Jun-25 09:00N 37°08' W 122°37'714.4
2018-Jun-25 08:30N 37°01' W 122°34'814.7
2018-Jun-25 07:59N 36°54' W 122°30'714.9
2018-Jun-25 07:30N 36°47' W 122°27'815.5
2018-Jun-25 07:00N 36°40' W 122°23'815.7
2018-Jun-25 06:30N 36°33' W 122°20'815.5
2018-Jun-25 06:00N 36°26' W 122°16'815.4
2018-Jun-25 05:30N 36°18' W 122°12'714.8
2018-Jun-25 05:00N 36°12' W 122°08'815.3
2018-Jun-25 04:30N 36°05' W 122°03'815.5
2018-Jun-25 04:00N 35°59' W 121°59'815.1
2018-Jun-25 03:30N 35°52' W 121°54'815.1
2018-Jun-25 03:00N 35°45' W 121°49'714.8
2018-Jun-25 02:30N 35°39' W 121°45'815.7
2018-Jun-25 02:00N 35°32' W 121°41'815.9
2018-Jun-25 01:30N 35°25' W 121°36'815.8
2018-Jun-25 01:00N 35°18' W 121°31'815.6
2018-Jun-25 00:30N 35°11' W 121°26'815.5
2018-Jun-25 00:00N 35°05' W 121°22'815.8
2018-Jun-24 23:30N 34°58' W 121°17'816.7
2018-Jun-24 23:00N 34°51' W 121°12'816.9
2018-Jun-24 22:30N 34°44' W 121°06'917.1
2018-Jun-24 22:00N 34°36' W 121°01'917.5
2018-Jun-24 21:30N 34°29' W 120°55'916.7
2018-Jun-24 20:59N 34°25' W 120°46'817.1
2018-Jun-24 20:30N 34°23' W 120°36'917.6
2018-Jun-24 20:00N 34°20' W 120°26'917.6
2018-Jun-24 19:30N 34°18' W 120°16'917.4
2018-Jun-24 18:59N 34°16' W 120°05'817.7
2018-Jun-24 18:30N 34°13' W 119°55'917.3
2018-Jun-24 18:00N 34°11' W 119°45'1017.9
2018-Jun-24 17:28N 34°09' W 119°34'917.6
2018-Jun-24 16:59N 34°06' W 119°24'817.3
2018-Jun-24 16:30N 34°04' W 119°15'917.4
2018-Jun-24 16:00N 33°59' W 119°05'713.3
2018-Jun-24 15:26N 33°56' W 118°57'511.6
2018-Jun-24 15:00N 33°53' W 118°52'711.4
2018-Jun-24 14:25N 33°50' W 118°45'511.5
2018-Jun-24 14:00N 33°48' W 118°40'711.6
2018-Jun-24 13:26N 33°44' W 118°33'511.5
2018-Jun-24 13:00N 33°42' W 118°28'611.7
2018-Jun-24 12:30N 33°39' W 118°22'510.2
2018-Jun-24 12:00N 33°40' W 118°16'4 7.6
2018-Jun-24 11:30N 33°43' W 118°16'1 1.3
2018-Jun-24 10:59N 33°44' W 118°15'0 0.0
2018-Jun-24 10:29N 33°44' W 118°15'0 0.0
2018-Jun-24 09:59N 33°44' W 118°15'0 0.0
2018-Jun-24 09:29N 33°44' W 118°15'0 0.0
2018-Jun-24 08:59N 33°44' W 118°15'0 0.0
2018-Jun-24 08:26N 33°44' W 118°15'0 0.0
2018-Jun-24 07:59N 33°44' W 118°15'0 0.0
2018-Jun-24 07:29N 33°44' W 118°15'0 0.0
2018-Jun-24 06:59N 33°44' W 118°15'0 0.0
2018-Jun-24 06:29N 33°44' W 118°15'0 0.0
2018-Jun-24 05:59N 33°44' W 118°15'0 0.0
2018-Jun-24 05:29N 33°44' W 118°15'0 0.0
2018-Jun-24 04:59N 33°44' W 118°15'0 0.0
2018-Jun-24 04:26N 33°44' W 118°15'0 0.0
2018-Jun-24 03:59N 33°44' W 118°15'0 0.0
2018-Jun-24 03:29N 33°44' W 118°15'0 0.0
2018-Jun-24 02:59N 33°44' W 118°15'0 0.0
2018-Jun-24 02:29N 33°44' W 118°15'0 0.0
2018-Jun-24 01:56N 33°44' W 118°15'0 0.0
2018-Jun-24 01:29N 33°44' W 118°15'0 0.0
2018-Jun-24 00:59N 33°44' W 118°15'0 0.0
2018-Jun-24 00:29N 33°44' W 118°15'0 0.0
2018-Jun-23 23:59N 33°44' W 118°15'0 0.0
2018-Jun-23 23:29N 33°44' W 118°15'0 0.0
2018-Jun-23 22:59N 33°44' W 118°15'0 0.0
2018-Jun-23 22:29N 33°44' W 118°15'0 0.0
2018-Jun-23 21:59N 33°44' W 118°15'0 0.0
2018-Jun-23 21:29N 33°44' W 118°15'0 0.0
2018-Jun-23 20:59N 33°44' W 118°15'0 0.0
2018-Jun-23 20:29N 33°44' W 118°15'0 0.0
2018-Jun-23 19:59N 33°44' W 118°15'0 0.0
2018-Jun-23 19:29N 33°44' W 118°15'0 0.0
2018-Jun-23 18:59N 33°44' W 118°15'0 0.0
2018-Jun-23 18:29N 33°44' W 118°15'0 0.0
2018-Jun-23 17:59N 33°44' W 118°15'0 0.0
2018-Jun-23 17:29N 33°44' W 118°15'0 0.0
2018-Jun-23 16:59N 33°44' W 118°15'0 0.0
2018-Jun-23 16:29N 33°44' W 118°15'0 0.0
2018-Jun-23 15:59N 33°44' W 118°15'0 0.0
2018-Jun-23 15:29N 33°44' W 118°15'0 0.0
2018-Jun-23 14:59N 33°44' W 118°15'0 0.0
2018-Jun-23 14:29N 33°44' W 118°15'0 0.1
2018-Jun-23 13:59N 33°44' W 118°15'0 0.1
2018-Jun-23 13:29N 33°44' W 118°15'0 0.0
2018-Jun-23 12:59N 33°44' W 118°15'0 0.0
2018-Jun-23 12:29N 33°44' W 118°15'0 0.0
2018-Jun-23 11:59N 33°44' W 118°15'0 0.0
2018-Jun-23 11:29N 33°44' W 118°15'0 0.1
2018-Jun-23 10:59N 33°44' W 118°15'0 0.1
2018-Jun-23 10:29N 33°44' W 118°15'0 0.0
2018-Jun-23 09:59N 33°44' W 118°15'0 0.0
2018-Jun-23 09:29N 33°44' W 118°15'0 0.0
2018-Jun-23 08:59N 33°44' W 118°15'0 0.0
2018-Jun-23 08:29N 33°44' W 118°15'0 0.0
2018-Jun-23 07:59N 33°44' W 118°15'0 0.0
2018-Jun-23 07:29N 33°44' W 118°15'0 0.0
2018-Jun-23 06:59N 33°44' W 118°15'0 0.0
2018-Jun-23 06:29N 33°44' W 118°15'0 0.0
2018-Jun-23 05:59N 33°44' W 118°15'0 0.0
2018-Jun-23 05:26N 33°44' W 118°15'0 0.0
2018-Jun-23 04:59N 33°44' W 118°15'0 0.0
2018-Jun-23 04:29N 33°44' W 118°15'0 0.0
2018-Jun-23 03:59N 33°44' W 118°15'0 0.0
2018-Jun-23 03:29N 33°44' W 118°15'0 0.0
2018-Jun-23 02:59N 33°44' W 118°15'0 0.0
2018-Jun-23 02:29N 33°44' W 118°15'0 0.0
2018-Jun-23 01:59N 33°44' W 118°15'0 0.0
2018-Jun-23 01:29N 33°44' W 118°15'0 0.0
2018-Jun-23 00:59N 33°44' W 118°15'0 0.0
2018-Jun-23 00:29N 33°44' W 118°15'0 0.0
2018-Jun-22 23:59N 33°44' W 118°15'0 0.0
2018-Jun-22 23:29N 33°44' W 118°15'0 0.0
2018-Jun-22 22:59N 33°44' W 118°15'0 0.0
2018-Jun-22 22:29N 33°44' W 118°15'0 0.0
2018-Jun-22 21:59N 33°44' W 118°15'0 0.0
2018-Jun-22 21:29N 33°44' W 118°15'0 0.0
2018-Jun-22 20:59N 33°44' W 118°15'0 0.0
2018-Jun-22 20:29N 33°44' W 118°15'0 0.1
2018-Jun-22 19:59N 33°44' W 118°15'0 0.1
2018-Jun-22 19:29N 33°44' W 118°15'0 0.0
2018-Jun-22 18:59N 33°44' W 118°15'0 0.0
2018-Jun-22 18:29N 33°44' W 118°15'0 0.0
2018-Jun-22 17:56N 33°44' W 118°15'0 0.0
2018-Jun-22 17:26N 33°44' W 118°15'0 0.0
2018-Jun-22 16:50N 33°44' W 118°15'0 0.0
2018-Jun-22 16:29N 33°44' W 118°15'0 0.0
2018-Jun-22 15:59N 33°44' W 118°15'0 0.0
2018-Jun-22 15:29N 33°44' W 118°15'0 0.0
2018-Jun-22 14:59N 33°44' W 118°15'0 0.0
2018-Jun-22 14:29N 33°44' W 118°15'0 0.0
2018-Jun-22 13:59N 33°44' W 118°15'0 0.0
2018-Jun-22 13:29N 33°44' W 118°15'0 0.0
2018-Jun-22 12:59N 33°44' W 118°15'0 0.0
2018-Jun-22 12:29N 33°44' W 118°15'0 0.0
2018-Jun-22 11:59N 33°44' W 118°15'0 0.0
2018-Jun-22 11:29N 33°44' W 118°15'0 0.0
2018-Jun-22 10:59N 33°44' W 118°15'0 0.0
2018-Jun-22 10:29N 33°44' W 118°15'0 0.0
2018-Jun-22 09:59N 33°44' W 118°15'0 0.0
2018-Jun-22 09:29N 33°44' W 118°15'0 0.0
2018-Jun-22 08:59N 33°44' W 118°15'0 0.0
2018-Jun-22 08:29N 33°44' W 118°15'0 0.0
2018-Jun-22 07:59N 33°44' W 118°15'0 0.0
2018-Jun-22 07:29N 33°44' W 118°15'0 0.0
2018-Jun-22 06:59N 33°44' W 118°15'0 0.0
2018-Jun-22 06:29N 33°44' W 118°15'0 0.0
2018-Jun-22 05:59N 33°44' W 118°15'0 0.0
2018-Jun-22 05:29N 33°44' W 118°15'0 0.0
2018-Jun-22 04:59N 33°44' W 118°15'0 0.0
2018-Jun-22 04:26N 33°44' W 118°15'0 0.0
2018-Jun-22 03:59N 33°44' W 118°15'0 0.0
2018-Jun-22 03:29N 33°44' W 118°15'0 0.0
2018-Jun-22 02:59N 33°44' W 118°15'0 0.0
2018-Jun-22 02:26N 33°44' W 118°15'0 0.0
2018-Jun-22 01:59N 33°44' W 118°15'0 0.0
2018-Jun-22 01:29N 33°44' W 118°15'0 0.0
2018-Jun-22 00:59N 33°44' W 118°15'0 0.0
2018-Jun-22 00:26N 33°44' W 118°15'0 0.0
2018-Jun-21 23:59N 33°44' W 118°15'0 0.0
2018-Jun-21 23:29N 33°44' W 118°15'0 0.0
2018-Jun-21 22:59N 33°44' W 118°15'0 0.0
2018-Jun-21 22:29N 33°44' W 118°15'0 0.0
2018-Jun-21 21:59N 33°44' W 118°15'0 0.0
2018-Jun-21 21:29N 33°44' W 118°15'0 0.0
2018-Jun-21 20:59N 33°44' W 118°15'0 0.0
2018-Jun-21 20:29N 33°44' W 118°15'0 0.0
2018-Jun-21 19:59N 33°44' W 118°15'0 0.0
2018-Jun-21 19:29N 33°44' W 118°15'0 0.0
2018-Jun-21 18:59N 33°44' W 118°15'0 0.0
2018-Jun-21 18:29N 33°44' W 118°15'0 0.0
2018-Jun-21 17:59N 33°44' W 118°15'0 0.0
2018-Jun-21 17:29N 33°44' W 118°15'0 0.0
2018-Jun-21 16:59N 33°44' W 118°15'0 0.0
2018-Jun-21 16:26N 33°44' W 118°15'0 0.0
2018-Jun-21 15:59N 33°44' W 118°15'0 0.0
2018-Jun-21 15:29N 33°44' W 118°15'0 0.0
2018-Jun-21 14:59N 33°44' W 118°15'0 0.0
2018-Jun-21 14:29N 33°44' W 118°15'0 0.0
2018-Jun-21 13:59N 33°44' W 118°15'0 0.0
2018-Jun-21 13:29N 33°44' W 118°15'0 0.0
2018-Jun-21 12:59N 33°44' W 118°15'0 0.1
2018-Jun-21 12:29N 33°44' W 118°15'0 0.1
2018-Jun-21 11:59N 33°44' W 118°15'0 0.0
2018-Jun-21 11:29N 33°44' W 118°15'0 0.0
2018-Jun-21 10:59N 33°44' W 118°15'0 0.0
2018-Jun-21 10:29N 33°44' W 118°15'0 0.0
2018-Jun-21 09:59N 33°44' W 118°15'0 0.0
2018-Jun-21 09:29N 33°44' W 118°15'0 0.0
2018-Jun-21 08:50N 33°44' W 118°15'0 0.0
2018-Jun-21 08:29N 33°44' W 118°15'0 0.0
2018-Jun-21 07:59N 33°44' W 118°15'0 0.0
2018-Jun-21 07:29N 33°44' W 118°15'0 0.0
2018-Jun-21 06:59N 33°44' W 118°15'0 0.0
2018-Jun-21 06:29N 33°44' W 118°15'0 0.0
2018-Jun-21 05:59N 33°44' W 118°15'0 0.0
2018-Jun-21 05:29N 33°44' W 118°15'0 0.0
2018-Jun-21 04:56N 33°44' W 118°15'0 0.0
2018-Jun-21 04:29N 33°44' W 118°15'0 0.0
2018-Jun-21 03:59N 33°44' W 118°15'0 0.0
2018-Jun-21 03:29N 33°44' W 118°15'0 0.0
2018-Jun-21 02:59N 33°44' W 118°15'0 0.0
2018-Jun-21 02:29N 33°44' W 118°15'0 0.0
2018-Jun-21 01:59N 33°44' W 118°15'0 0.0
2018-Jun-21 01:29N 33°44' W 118°15'0 0.0
2018-Jun-21 00:59N 33°44' W 118°15'0 0.0
2018-Jun-21 00:29N 33°44' W 118°15'0 0.0
2018-Jun-20 23:59N 33°44' W 118°15'0 0.0
2018-Jun-20 23:29N 33°44' W 118°15'0 0.0
2018-Jun-20 22:59N 33°44' W 118°15'0 0.0
2018-Jun-20 22:29N 33°44' W 118°15'0 0.1
2018-Jun-20 22:00N 33°44' W 118°15'1 2.6
2018-Jun-20 21:30N 33°43' W 118°15'4 8.1
2018-Jun-20 21:00N 33°39' W 118°14'5 9.8
2018-Jun-20 20:30N 33°36' W 118°19'611.6
2018-Jun-20 20:00N 33°38' W 118°25'611.9
2018-Jun-20 19:30N 33°41' W 118°32'612.0
2018-Jun-20 19:00N 33°44' W 118°38'611.9
2018-Jun-20 18:29N 33°47' W 118°44'611.8
2018-Jun-20 18:00N 33°50' W 118°50'612.0
2018-Jun-20 17:30N 33°53' W 118°57'611.8
2018-Jun-20 17:00N 33°56' W 119°03'612.4
2018-Jun-20 16:30N 33°59' W 119°09'714.2
2018-Jun-20 15:59N 34°03' W 119°17'714.2
2018-Jun-20 15:30N 34°05' W 119°25'714.2
2018-Jun-20 15:00N 34°06' W 119°33'814.7
2018-Jun-20 14:29N 34°08' W 119°42'714.9
2018-Jun-20 14:00N 34°10' W 119°50'815.0
2018-Jun-20 13:30N 34°12' W 119°59'714.5
2018-Jun-20 12:59N 34°14' W 120°08'714.2
2018-Jun-20 12:30N 34°16' W 120°16'715.0
2018-Jun-20 12:00N 34°18' W 120°25'714.1
2018-Jun-20 11:30N 34°20' W 120°33'714.1
2018-Jun-20 11:01N 34°22' W 120°41'714.7
2018-Jun-20 10:30N 34°24' W 120°50'714.5
2018-Jun-20 10:01N 34°27' W 120°58'714.4
2018-Jun-20 09:30N 34°31' W 121°05'714.4
2018-Jun-20 09:01N 34°34' W 121°12'714.9
2018-Jun-20 08:31N 34°38' W 121°20'714.3
2018-Jun-20 08:01N 34°42' W 121°28'714.5
2018-Jun-20 07:30N 34°46' W 121°35'714.3
2018-Jun-20 07:01N 34°49' W 121°43'714.2
2018-Jun-20 06:30N 34°53' W 121°50'714.6
2018-Jun-20 06:00N 34°57' W 121°58'714.4
2018-Jun-20 05:31N 35°01' W 122°05'714.6
2018-Jun-20 05:01N 35°04' W 122°13'714.9
2018-Jun-20 04:31N 35°08' W 122°20'714.7
2018-Jun-20 04:01N 35°12' W 122°28'815.0
2018-Jun-20 03:30N 35°16' W 122°36'714.6
2018-Jun-20 03:00N 35°20' W 122°44'714.2
2018-Jun-20 02:31N 35°23' W 122°51'714.7
2018-Jun-20 02:01N 35°27' W 122°59'714.5
2018-Jun-20 01:31N 35°31' W 123°06'714.4
2018-Jun-20 01:01N 35°35' W 123°14'714.5
2018-Jun-20 00:31N 35°38' W 123°22'714.6
2018-Jun-20 00:00N 35°42' W 123°29'714.8
2018-Jun-19 23:31N 35°46' W 123°37'713.6
2018-Jun-19 23:00N 35°50' W 123°44'1 1.7
2018-Jun-19 22:30N 35°50' W 123°45'610.3
2018-Jun-19 21:56N 35°53' W 123°51'715.6
2018-Jun-19 21:30N 35°57' W 123°58'816.0
2018-Jun-19 20:59N 36°01' W 124°07'816.0
2018-Jun-19 20:30N 36°05' W 124°15'815.8
2018-Jun-19 20:00N 36°09' W 124°23'1116.2
2018-Jun-19 19:21N 36°15' W 124°35'1016.9
2018-Jun-19 18:47N 36°20' W 124°45'1717.0
2018-Jun-19 17:48N 36°28' W 125°03'516.4
2018-Jun-19 17:30N 36°31' W 125°08'1116.3
2018-Jun-19 16:49N 36°36' W 125°20'516.4
2018-Jun-19 16:30N 36°39' W 125°25'816.2
2018-Jun-19 16:00N 36°43' W 125°34'816.3
2018-Jun-19 15:30N 36°48' W 125°42'816.7
2018-Jun-19 15:00N 36°52' W 125°51'816.8
2018-Jun-19 14:30N 36°56' W 126°00'916.9
2018-Jun-19 14:00N 37°01' W 126°09'817.0
2018-Jun-19 13:30N 37°05' W 126°18'1117.3
2018-Jun-19 12:53N 37°11' W 126°30'817.3
2018-Jun-19 12:25N 37°15' W 126°39'1017.0
2018-Jun-19 11:51N 37°20' W 126°49'716.9
2018-Jun-19 11:27N 37°23' W 126°56'816.9
2018-Jun-19 11:00N 37°27' W 127°04'916.5
2018-Jun-19 10:30N 37°32' W 127°13'816.4
2018-Jun-19 10:00N 37°36' W 127°22'816.8
2018-Jun-19 09:30N 37°40' W 127°31'917.0
2018-Jun-19 09:00N 37°45' W 127°40'817.1
2018-Jun-19 08:30N 37°49' W 127°50'917.2
2018-Jun-19 08:00N 37°53' W 127°59'917.2
2018-Jun-19 07:30N 37°57' W 128°09'917.4
2018-Jun-19 07:00N 38°01' W 128°18'  
2018-Jun-17 00:00N 44°12' W 151°12'23719.7 190 / 281010.5 0.5 13.011.310.5
2018-Jun-16 12:00N 45°06' W 156°36'   250 / 201006.0 1.1 12.0 8.3 9.0

Dump ship's entire track history